Time;durP1;ratioP1;P1;durP2;ratioP2;P2;SDS_P1;SDS_P2;PMS_P1;PMS_P2;Temp;Humidity;BMP_temperature;BMP_pressure;BME280_temperature;BME280_humidity;BME280_pressure;Samples;Min_cycle;Max_cycle;Signal;HPM_P1;HPM_P2
2023/07/13 00:00:28;;;;;;;30.13;15.95;;;;;;;25.57;100.00;100772.91;5053481;28;20025;-90
2023/07/13 00:02:54;;;;;;;23.42;14.07;;;;;;;25.58;100.00;100774.59;5053792;28;20037;-93
2023/07/13 00:05:23;;;;;;;19.38;15.27;;;;;;;25.44;100.00;100758.09;5054166;28;20037;-91
2023/07/13 00:07:50;;;;;;;32.53;16.90;;;;;;;25.38;100.00;100774.69;5054624;28;20025;-94
2023/07/13 00:10:17;;;;;;;23.42;15.70;;;;;;;25.13;100.00;100743.41;5053261;28;20054;-94
2023/07/13 00:12:43;;;;;;;28.00;17.08;;;;;;;25.08;100.00;100762.47;5053908;28;20040;-94
2023/07/13 00:15:20;;;;;;;23.40;15.73;;;;;;;24.97;100.00;100743.88;5061519;28;20040;-96
2023/07/13 00:17:47;;;;;;;25.67;15.40;;;;;;;25.07;100.00;100738.78;5073904;28;20025;-94
2023/07/13 00:20:13;;;;;;;23.98;16.20;;;;;;;25.23;100.00;100752.88;5073343;28;20081;-93
2023/07/13 00:22:39;;;;;;;21.83;14.82;;;;;;;25.12;100.00;100727.94;5073922;28;20040;-92
2023/07/13 00:25:05;;;;;;;23.60;14.93;;;;;;;25.32;100.00;100765.34;5069054;28;20029;-88
2023/07/13 00:27:31;;;;;;;21.08;15.90;;;;;;;25.11;100.00;100729.84;5054744;28;20036;-86
2023/07/13 00:29:58;;;;;;;17.17;14.93;;;;;;;25.12;100.00;100722.44;5050479;28;20033;-87
2023/07/13 00:32:25;;;;;;;31.08;15.68;;;;;;;25.35;100.00;100761.34;5051984;28;20025;-86
2023/07/13 00:34:51;;;;;;;24.20;16.20;;;;;;;25.26;100.00;100737.84;5051496;28;20033;-87
2023/07/13 00:37:17;;;;;;;49.65;16.77;;;;;;;25.23;100.00;100727.25;5050672;28;20060;-86
2023/07/13 00:39:43;;;;;;;17.92;15.00;;;;;;;25.18;100.00;100713.31;5048540;28;20061;-86
2023/07/13 00:42:08;;;;;;;35.47;17.20;;;;;;;25.32;100.00;100728.69;5050662;28;20057;-88
2023/07/13 00:44:34;;;;;;;31.30;16.90;;;;;;;25.20;100.00;100705.66;5051016;28;20053;-86
2023/07/13 00:46:59;;;;;;;26.67;15.43;;;;;;;25.45;100.00;100736.91;5051390;28;20059;-86
2023/07/13 00:49:29;;;;;;;27.77;17.08;;;;;;;25.29;100.00;100709.88;5050249;28;20032;-87
2023/07/13 00:51:56;;;;;;;22.63;15.32;;;;;;;25.47;100.00;100722.94;5050115;28;20029;-88
2023/07/13 00:54:44;;;;;;;23.05;15.32;;;;;;;25.45;100.00;100720.38;5050834;28;20029;-87
2023/07/13 00:57:15;;;;;;;23.20;16.55;;;;;;;25.35;100.00;100703.50;5049978;28;20460;-86
2023/07/13 00:59:45;;;;;;;22.67;15.23;;;;;;;25.50;100.00;100728.03;5051035;28;20029;-87
2023/07/13 01:02:11;;;;;;;34.03;16.85;;;;;;;25.34;100.00;100701.81;5050195;28;20467;-87
2023/07/13 01:04:38;;;;;;;26.55;17.25;;;;;;;25.22;100.00;100695.31;5050670;28;20021;-87
2023/07/13 01:07:06;;;;;;;29.33;16.88;;;;;;;25.32;100.00;100704.78;5053757;28;20092;-88
2023/07/13 01:09:31;;;;;;;24.17;18.17;;;;;;;25.35;100.00;100700.75;5053261;28;20033;-86
2023/07/13 01:11:59;;;;;;;20.83;18.05;;;;;;;25.37;100.00;100704.13;5052546;28;20440;-87
2023/07/13 01:14:25;;;;;;;32.72;17.30;;;;;;;25.28;100.00;100672.41;5054099;28;20147;-87
2023/07/13 01:16:51;;;;;;;26.27;16.13;;;;;;;25.25;100.00;100683.84;5054592;28;20040;-89
2023/07/13 01:19:17;;;;;;;30.50;17.08;;;;;;;25.35;100.00;100703.50;5054872;28;20496;-86
2023/07/13 01:21:43;;;;;;;24.35;17.88;;;;;;;25.28;100.00;100691.69;5053920;28;20024;-86
2023/07/13 01:24:09;;;;;;;30.02;18.83;;;;;;;25.07;100.00;100657.03;5055321;28;20044;-86
2023/07/13 01:26:35;;;;;;;24.92;18.58;;;;;;;25.23;100.00;100669.44;5063426;28;20036;-86
2023/07/13 01:29:01;;;;;;;27.52;16.80;;;;;;;25.19;100.00;100669.06;5063721;28;20033;-84
2023/07/13 01:31:27;;;;;;;26.85;18.38;;;;;;;25.21;100.00;100655.06;5057024;28;20116;-86
2023/07/13 01:33:53;;;;;;;32.75;17.70;;;;;;;25.22;100.00;100646.59;5061921;28;20037;-90
2023/07/13 01:36:21;;;;;;;27.42;17.90;;;;;;;25.26;100.00;100649.72;5073907;28;20027;-87
2023/07/13 01:38:46;;;;;;;27.58;15.95;;;;;;;25.31;100.00;100652.69;5056805;28;20021;-89
2023/07/13 01:41:12;;;;;;;20.60;16.70;;;;;;;25.33;100.00;100667.91;5054824;28;20039;-85
2023/07/13 01:43:38;;;;;;;20.45;16.40;;;;;;;25.25;100.00;100654.41;5053767;28;20033;-86
2023/07/13 01:46:03;;;;;;;23.70;15.60;;;;;;;25.35;100.00;100659.44;5054846;28;20036;-85
2023/07/13 01:48:28;;;;;;;22.38;16.23;;;;;;;25.46;100.00;100683.53;5056001;28;20036;-84
2023/07/13 01:50:54;;;;;;;26.05;15.98;;;;;;;25.34;100.00;100653.09;5070387;28;20025;-86
2023/07/13 01:53:19;;;;;;;27.90;17.77;;;;;;;25.41;100.00;100672.34;5066857;28;20052;-84
2023/07/13 01:55:45;;;;;;;24.88;17.23;;;;;;;25.37;100.00;100669.19;5055442;28;20196;-85
2023/07/13 01:58:10;;;;;;;18.17;15.82;;;;;;;25.27;100.00;100656.94;5054704;28;20036;-84
2023/07/13 02:00:36;;;;;;;24.05;17.55;;;;;;;25.25;100.00;100654.41;5052888;28;20492;-85
2023/07/13 02:03:01;;;;;;;21.88;17.02;;;;;;;25.24;100.00;100647.22;5054286;28;20064;-85
2023/07/13 02:05:27;;;;;;;21.20;16.60;;;;;;;25.40;100.00;100673.41;5055422;28;20485;-85
2023/07/13 02:07:52;;;;;;;28.92;17.77;;;;;;;25.35;100.00;100665.78;5055388;28;20036;-86
2023/07/13 02:10:18;;;;;;;23.55;16.73;;;;;;;25.35;100.00;100667.72;5055146;28;20075;-85
2023/07/13 02:12:44;;;;;;;24.73;17.02;;;;;;;25.44;100.00;100678.22;5053421;28;20040;-86
2023/07/13 02:15:10;;;;;;;54.03;19.30;;;;;;;25.38;100.00;100665.34;5054411;28;20036;-88
2023/07/13 02:17:36;;;;;;;34.05;18.40;;;;;;;25.20;100.00;100634.94;5054150;28;20036;-86
2023/07/13 02:20:04;;;;;;;23.63;16.63;;;;;;;25.40;100.00;100663.22;5053941;28;20547;-86
2023/07/13 02:22:30;;;;;;;22.02;16.85;;;;;;;25.40;100.00;100662.38;5053788;28;20025;-86
2023/07/13 02:24:56;;;;;;;31.40;17.95;;;;;;;25.31;100.00;100652.69;5053185;28;20021;-86
2023/07/13 02:27:21;;;;;;;24.80;16.05;;;;;;;25.46;100.00;100678.03;5054407;28;20056;-87
2023/07/13 02:29:47;;;;;;;23.17;16.50;;;;;;;25.44;100.00;100666.38;5055187;28;20033;-87
2023/07/13 02:32:12;;;;;;;21.48;15.95;;;;;;;25.31;100.00;100664.56;5061577;28;20025;-87
2023/07/13 02:34:38;;;;;;;28.25;17.52;;;;;;;25.15;100.00;100636.66;5076167;28;20029;-92
2023/07/13 02:37:04;;;;;;;29.35;18.00;;;;;;;25.34;100.00;100675.13;5070098;28;20040;-85
2023/07/13 02:39:32;;;;;;;38.40;18.05;;;;;;;25.29;100.00;100660.31;5066988;28;20020;-85
2023/07/13 02:41:58;;;;;;;33.20;16.88;;;;;;;25.34;100.00;100664.13;5060400;28;20036;-85
2023/07/13 02:44:24;;;;;;;28.95;16.88;;;;;;;25.28;100.00;100672.41;5062074;28;20071;-84
2023/07/13 02:46:49;;;;;;;23.20;17.77;;;;;;;25.26;100.00;100671.75;5056321;28;20021;-84
2023/07/13 02:49:15;;;;;;;23.63;18.10;;;;;;;25.12;100.00;100650.88;5053434;28;20029;-85
2023/07/13 02:51:40;;;;;;;27.00;19.70;;;;;;;25.10;100.00;100656.59;5053178;28;20048;-86
2023/07/13 02:54:08;;;;;;;28.30;19.77;;;;;;;25.13;100.00;100649.81;5052194;28;20511;-84
2023/07/13 02:56:34;;;;;;;35.05;18.52;;;;;;;25.17;100.00;100664.81;5050780;28;20446;-85
2023/07/13 02:58:59;;;;;;;28.55;16.38;;;;;;;25.24;100.00;100668.38;5051917;28;20029;-85
2023/07/13 03:01:25;;;;;;;30.90;15.85;;;;;;;25.13;100.00;100644.31;5050469;28;20495;-86
2023/07/13 03:03:51;;;;;;;35.83;16.83;;;;;;;25.25;100.00;100667.34;5053620;28;20032;-86
2023/07/13 03:06:17;;;;;;;22.80;13.30;;;;;;;25.15;100.00;100666.94;5069332;28;20027;-89
2023/07/13 03:08:43;;;;;;;25.73;14.82;;;;;;;25.00;100.00;100639.72;5074522;28;20028;-93
2023/07/13 03:11:12;;;;;;;20.77;13.45;;;;;;;25.06;100.00;100649.00;5071924;28;20041;-84
2023/07/13 03:13:39;;;;;;;24.40;15.32;;;;;;;25.14;100.00;100657.00;5071100;28;20037;-85
2023/07/13 03:16:05;;;;;;;19.27;12.60;;;;;;;25.12;98.85;100631.59;5070340;28;20457;-85
2023/07/13 03:18:31;;;;;;;27.52;13.93;;;;;;;25.05;97.85;100625.28;5072301;28;20028;-88
2023/07/13 03:20:58;;;;;;;20.92;13.93;;;;;;;25.11;97.74;100630.75;5077676;28;20020;-88
2023/07/13 03:23:24;;;;;;;35.35;14.20;;;;;;;25.36;97.14;100669.38;5077066;28;20033;-87
2023/07/13 03:25:50;;;;;;;33.42;15.05;;;;;;;25.37;96.07;100668.31;5077570;28;20039;-84
2023/07/13 03:28:16;;;;;;;22.02;13.55;;;;;;;25.23;95.67;100644.66;5053530;28;20104;-84
2023/07/13 03:30:42;;;;;;;22.40;14.15;;;;;;;25.18;95.31;100626.06;5052869;28;20037;-86
2023/07/13 03:33:08;;;;;;;27.17;15.45;;;;;;;25.27;94.63;100645.91;5052113;28;20031;-85
2023/07/13 03:35:34;;;;;;;23.52;13.63;;;;;;;25.48;94.54;100670.38;5051550;28;20033;-86
2023/07/13 03:38:00;;;;;;;25.92;14.30;;;;;;;25.49;93.76;100671.25;5050628;28;20393;-87
2023/07/13 03:40:27;;;;;;;24.45;14.57;;;;;;;25.22;93.06;100632.84;5051765;28;20063;-87
2023/07/13 03:42:53;;;;;;;32.45;14.73;;;;;;;25.31;92.79;100648.03;5051956;28;20025;-85
2023/07/13 03:45:19;;;;;;;19.92;13.95;;;;;;;25.27;91.96;100626.66;5052183;28;20183;-87
2023/07/13 03:47:45;;;;;;;24.95;15.20;;;;;;;25.37;91.07;100640.78;5051013;28;20029;-86
2023/07/13 03:50:11;;;;;;;33.97;15.05;;;;;;;25.35;90.27;100627.22;5052857;28;20033;-87
2023/07/13 03:52:36;;;;;;;37.63;14.57;;;;;;;25.61;90.15;100675.84;5052505;28;20031;-88
2023/07/13 03:55:02;;;;;;;34.40;14.35;;;;;;;25.44;90.20;100642.41;5055044;28;20040;-87
2023/07/13 03:57:28;;;;;;;75.75;19.55;;;;;;;25.50;89.68;100639.91;5034133;28;20037;-87
2023/07/13 03:59:54;;;;;;;63.58;20.00;;;;;;;25.52;89.48;100633.09;5037673;28;20025;-89
2023/07/13 04:02:20;;;;;;;59.25;19.08;;;;;;;25.52;89.80;100652.38;5028964;28;20044;-86
2023/07/13 04:04:46;;;;;;;30.85;15.63;;;;;;;25.66;89.81;100659.47;5035155;28;20486;-88
2023/07/13 04:07:12;;;;;;;36.55;15.75;;;;;;;25.71;90.30;100651.41;5021761;28;20113;-87
2023/07/13 04:09:37;;;;;;;46.20;16.60;;;;;;;25.77;90.70;100656.03;5008706;28;20041;-88
2023/07/13 04:12:03;;;;;;;66.22;19.23;;;;;;;25.81;91.43;100657.25;5008697;28;20045;-87
2023/07/13 04:14:29;;;;;;;54.75;16.40;;;;;;;26.03;92.38;100674.25;5010038;28;20026;-87
2023/07/13 04:16:55;;;;;;;41.00;15.57;;;;;;;26.06;93.00;100679.31;5012268;28;20568;-84
2023/07/13 04:19:21;;;;;;;54.83;16.42;;;;;;;26.12;93.16;100678.44;5008906;28;20414;-77
2023/07/13 04:21:46;;;;;;;32.80;13.80;;;;;;;26.15;92.75;100675.25;5005458;28;20497;-77
2023/07/13 04:24:12;;;;;;;45.88;13.73;;;;;;;26.16;92.68;100671.44;5019351;28;20041;-78
2023/07/13 04:26:38;;;;;;;57.22;16.25;;;;;;;26.17;91.92;100672.28;5009692;28;20030;-77
2023/07/13 04:29:04;;;;;;;63.45;17.20;;;;;;;26.22;91.40;100669.69;5022256;28;20120;-79
2023/07/13 04:31:31;;;;;;;65.45;15.32;;;;;;;26.24;89.26;100671.13;5027758;28;20030;-76
2023/07/13 04:34:03;;;;;;;38.78;14.82;;;;;;;26.35;87.28;100686.13;5028666;28;20034;-89
2023/07/13 04:36:31;;;;;;;56.90;14.67;;;;;;;26.35;85.45;100675.94;5033181;28;20026;-88
2023/07/13 04:38:56;;;;;;;20.00;12.27;;;;;;;26.34;84.04;100685.25;5031663;28;20116;-90
2023/07/13 04:41:22;;;;;;;46.83;15.77;;;;;;;26.40;83.29;100686.28;5030299;28;20108;-80
2023/07/13 04:43:48;;;;;;;21.42;11.77;;;;;;;26.42;82.96;100689.66;5014946;28;20061;-95
2023/07/13 04:46:17;;;;;;;51.88;14.70;;;;;;;26.46;81.64;100688.13;5021823;28;20044;-85
2023/07/13 04:48:43;;;;;;;57.38;14.85;;;;;;;26.51;80.80;100688.31;5032184;28;20037;-87
2023/07/13 04:51:09;;;;;;;37.78;15.55;;;;;;;26.62;81.04;100698.59;5031778;28;20034;-87
2023/07/13 04:53:34;;;;;;;39.40;12.75;;;;;;;26.49;78.72;100662.84;5032797;28;20029;-87
2023/07/13 04:56:01;;;;;;;47.53;14.40;;;;;;;26.65;78.17;100678.81;5031850;28;20096;-86
2023/07/13 04:58:27;;;;;;;48.80;13.43;;;;;;;26.67;77.67;100664.75;5031903;28;20034;-84
2023/07/13 05:00:53;;;;;;;56.13;14.55;;;;;;;26.93;77.95;100692.97;5032715;28;20052;-85
2023/07/13 05:03:18;;;;;;;61.95;15.15;;;;;;;26.98;77.87;100690.34;5032863;28;20474;-85
2023/07/13 05:05:55;;;;;;;69.22;15.93;;;;;;;27.03;77.40;100681.41;5035059;28;20481;-92
2023/07/13 05:08:20;;;;;;;30.92;13.55;;;;;;;27.10;76.27;100678.53;5030829;28;20537;-83
2023/07/13 05:10:46;;;;;;;55.53;14.80;;;;;;;27.18;75.85;100690.13;5031140;28;20101;-80
2023/07/13 05:13:11;;;;;;;36.20;12.75;;;;;;;27.28;75.76;100695.06;5031532;28;20061;-86
2023/07/13 05:15:37;;;;;;;78.47;18.08;;;;;;;27.20;75.50;100667.78;5035159;28;20048;-86
2023/07/13 05:18:02;;;;;;;33.00;12.50;;;;;;;27.29;74.71;100658.94;5034748;28;20033;-86
2023/07/13 05:20:29;;;;;;;32.13;13.45;;;;;;;27.36;74.28;100670.75;5038114;28;20496;-89
2023/07/13 05:22:55;;;;;;;29.38;12.93;;;;;;;27.42;73.59;100666.22;5034360;28;20421;-84
2023/07/13 05:25:20;;;;;;;27.90;12.77;;;;;;;27.67;73.25;100691.81;5034018;28;20025;-85
2023/07/13 05:27:46;;;;;;;21.50;13.32;;;;;;;27.68;72.68;100684.34;5032536;28;20045;-83
2023/07/13 05:30:12;;;;;;;43.17;15.90;;;;;;;27.72;71.84;100675.38;5031706;28;20029;-77
2023/07/13 05:32:38;;;;;;;29.70;12.07;;;;;;;27.90;71.65;100689.13;5029208;28;20033;-76
2023/07/13 05:35:04;;;;;;;29.02;11.77;;;;;;;28.01;71.58;100693.81;5029436;28;20516;-80
2023/07/13 05:37:29;;;;;;;19.98;12.25;;;;;;;28.08;70.79;100691.84;5029685;28;20041;-75
2023/07/13 05:39:54;;;;;;;30.17;12.10;;;;;;;28.22;70.51;100708.22;5029030;28;20037;-78
2023/07/13 05:42:20;;;;;;;18.67;11.45;;;;;;;28.32;70.02;100702.91;5029599;28;20050;-80
2023/07/13 05:44:45;;;;;;;26.77;13.48;;;;;;;28.35;69.56;100711.59;5029221;28;20045;-77
2023/07/13 05:47:11;;;;;;;28.83;12.90;;;;;;;28.44;68.99;100706.56;5029416;28;20026;-77
2023/07/13 05:49:36;;;;;;;45.85;14.90;;;;;;;28.48;68.53;100713.28;5029227;28;20034;-80
2023/07/13 05:52:02;;;;;;;31.85;11.40;;;;;;;28.55;69.71;100705.72;5029113;28;20823;-80
2023/07/13 05:54:28;;;;;;;27.30;12.25;;;;;;;28.64;70.94;100712.56;5029621;28;20033;-84
2023/07/13 05:56:53;;;;;;;24.60;11.98;;;;;;;28.71;70.93;100712.50;5029653;28;20482;-77
2023/07/13 05:59:18;;;;;;;28.35;12.18;;;;;;;28.73;70.08;100708.41;5031612;28;20025;-91
2023/07/13 06:01:44;;;;;;;23.10;12.13;;;;;;;28.75;68.31;100702.59;5030151;28;20512;-79
2023/07/13 06:04:09;;;;;;;32.03;12.75;;;;;;;28.81;70.17;100705.25;5029514;28;20533;-84
2023/07/13 06:06:35;;;;;;;29.50;12.77;;;;;;;28.72;65.68;100686.47;5030332;28;20033;-84
2023/07/13 06:09:01;;;;;;;48.15;14.10;;;;;;;28.84;64.45;100702.00;5030041;28;20478;-84
2023/07/13 06:11:27;;;;;;;32.45;14.20;;;;;;;28.99;63.59;100710.63;5013282;28;20043;-83
2023/07/13 06:13:53;;;;;;;18.02;12.00;;;;;;;29.04;61.63;100702.47;5031269;28;20033;-91
2023/07/13 06:16:19;;;;;;;26.40;12.18;;;;;;;29.01;60.28;100691.88;5013081;28;20037;-88
2023/07/13 06:18:46;;;;;;;27.33;12.68;;;;;;;29.13;59.94;100705.69;5030976;28;20037;-85
2023/07/13 06:21:14;;;;;;;23.70;12.13;;;;;;;29.09;59.42;100701.72;4979650;28;20692;-87
2023/07/13 06:23:40;;;;;;;39.30;14.02;;;;;;;29.05;59.26;100681.97;5031083;28;20500;-88
2023/07/13 06:26:07;;;;;;;30.50;13.07;;;;;;;29.15;59.32;100693.28;5031611;28;20025;-88
2023/07/13 06:28:33;;;;;;;29.63;14.57;;;;;;;29.31;59.31;100707.47;5033258;28;20508;-84
2023/07/13 06:30:59;;;;;;;21.17;13.10;;;;;;;29.34;59.24;100699.50;5032374;28;20021;-85
2023/07/13 06:33:25;;;;;;;31.58;16.88;;;;;;;29.44;59.20;100707.19;5044418;28;20041;-85
2023/07/13 06:35:50;;;;;;;38.95;15.77;;;;;;;29.46;59.02;100691.16;5037452;28;20025;-89
2023/07/13 06:38:16;;;;;;;28.77;12.63;;;;;;;29.62;58.86;100702.31;5030630;28;20034;-85
2023/07/13 06:40:41;;;;;;;32.00;13.15;;;;;;;29.67;58.22;100693.22;5028811;28;20464;-83
2023/07/13 06:43:07;;;;;;;29.95;13.88;;;;;;;29.74;58.50;100690.31;5029188;28;20101;-83
2023/07/13 06:45:41;;;;;;;29.55;12.52;;;;;;;29.81;57.72;100691.84;5029366;28;20060;-87
2023/07/13 06:48:07;;;;;;;22.38;13.40;;;;;;;29.81;58.06;100691.84;5030110;28;20040;-83
2023/07/13 06:50:33;;;;;;;26.45;13.80;;;;;;;29.79;57.69;100674.59;5029261;28;20021;-84
2023/07/13 06:52:59;;;;;;;29.20;14.18;;;;;;;29.83;57.29;100667.50;5032217;28;20044;-83
2023/07/13 06:55:25;;;;;;;22.58;12.70;;;;;;;30.00;57.72;100682.22;5033247;28;20550;-87
2023/07/13 06:57:51;;;;;;;29.50;13.18;;;;;;;30.04;57.78;100679.78;5037930;28;20037;-86
2023/07/13 07:00:16;;;;;;;29.95;13.18;;;;;;;29.95;61.80;100679.38;5043490;28;20029;-83
2023/07/13 07:02:42;;;;;;;30.05;10.52;;;;;;;29.94;62.50;100683.22;5030268;28;20025;-83
2023/07/13 07:05:07;;;;;;;26.17;12.35;;;;;;;29.95;62.05;100698.78;5030735;28;20029;-84
2023/07/13 07:07:33;;;;;;;20.65;11.10;;;;;;;29.88;64.53;100681.44;5030611;28;20026;-86
2023/07/13 07:09:58;;;;;;;26.63;11.32;;;;;;;29.93;65.19;100695.44;5031599;28;20037;-83
2023/07/13 07:12:24;;;;;;;19.33;10.70;;;;;;;29.91;64.85;100699.53;5013123;28;20537;-80
2023/07/13 07:14:49;;;;;;;24.50;10.75;;;;;;;29.80;65.87;100681.84;5035492;28;20487;-83
2023/07/13 07:17:15;;;;;;;39.65;19.25;;;;;;;29.91;65.38;100692.03;5052249;28;20026;-80
2023/07/13 07:19:41;;;;;;;22.50;11.00;;;;;;;29.92;63.70;100693.75;5050172;28;20025;-86
2023/07/13 07:22:07;;;;;;;26.17;11.70;;;;;;;29.75;65.27;100692.84;5041687;28;20028;-81
2023/07/13 07:24:32;;;;;;;23.38;12.90;;;;;;;29.71;64.89;100686.09;5031944;28;20037;-80
2023/07/13 07:26:58;;;;;;;45.70;14.27;;;;;;;29.78;64.62;100689.56;5013577;28;20041;-83
2023/07/13 07:29:26;;;;;;;21.73;12.25;;;;;;;29.79;64.79;100688.47;5031719;28;20033;-83
2023/07/13 07:31:51;;;;;;;74.63;18.70;;;;;;;29.74;65.40;100663.41;5030368;28;20021;-85
2023/07/13 07:34:17;;;;;;;29.73;12.73;;;;;;;29.89;65.79;100688.69;5030309;28;20094;-82
2023/07/13 07:36:42;;;;;;;26.90;12.85;;;;;;;29.86;65.69;100689.19;5029401;28;20159;-79
2023/07/13 07:39:08;;;;;;;24.50;12.50;;;;;;;29.82;66.29;100685.22;5027883;28;20029;-80
2023/07/13 07:41:33;;;;;;;49.53;14.20;;;;;;;29.92;66.69;100696.50;5027343;28;20033;-80
2023/07/13 07:43:59;;;;;;;61.08;13.38;;;;;;;29.94;66.97;100683.22;5027417;28;20056;-79
2023/07/13 07:46:24;;;;;;;26.60;11.45;;;;;;;29.83;68.91;100688.84;5028700;28;20029;-83
2023/07/13 07:48:50;;;;;;;31.88;12.27;;;;;;;29.73;68.44;100666.44;5028868;28;20076;-84
2023/07/13 07:51:15;;;;;;;17.63;10.75;;;;;;;29.97;68.79;100696.59;5028128;28;20032;-81
2023/07/13 07:53:40;;;;;;;25.20;11.20;;;;;;;29.95;68.77;100693.22;5028678;28;20029;-82
2023/07/13 07:56:06;;;;;;;27.17;11.68;;;;;;;29.79;70.00;100696.78;5027920;28;20147;-79
2023/07/13 07:58:31;;;;;;;27.45;11.48;;;;;;;29.80;69.63;100678.22;5030143;28;20034;-81
2023/07/13 08:01:07;;;;;;;26.15;12.07;;;;;;;29.98;68.91;100689.97;5029516;28;20040;-86
2023/07/13 08:03:32;;;;;;;26.42;10.82;;;;;;;30.12;68.91;100699.63;5013960;28;20021;-88
2023/07/13 08:05:58;;;;;;;27.48;11.77;;;;;;;30.12;68.61;100698.81;5014862;28;20028;-85
2023/07/13 08:08:24;;;;;;;21.70;10.98;;;;;;;30.27;68.26;100693.53;5031679;28;20474;-84
2023/07/13 08:10:50;;;;;;;32.83;12.20;;;;;;;30.23;67.93;100695.97;5031263;28;20026;-79
2023/07/13 08:13:15;;;;;;;42.80;13.23;;;;;;;30.26;68.37;100699.31;5028053;28;20032;-82
2023/07/13 08:15:41;;;;;;;17.20;12.02;;;;;;;30.16;67.62;100683.31;5031390;28;20036;-79
2023/07/13 08:18:09;;;;;;;46.80;12.63;;;;;;;30.00;68.21;100685.00;5032074;28;20033;-81
2023/07/13 08:20:40;;;;;;;40.53;10.82;;;;;;;30.01;68.14;100697.78;5032639;28;20508;-84
2023/07/13 08:23:06;;;;;;;32.08;10.93;;;;;;;30.03;68.04;100681.72;5031669;28;20036;-80
2023/07/13 08:25:32;;;;;;;18.98;10.85;;;;;;;30.22;68.02;100698.97;5031272;28;20113;-79
2023/07/13 08:27:57;;;;;;;19.77;10.57;;;;;;;30.21;68.02;100681.47;5031698;28;20544;-82
2023/07/13 08:30:23;;;;;;;32.78;10.82;;;;;;;30.16;67.87;100689.72;5033696;28;20104;-80
2023/07/13 08:32:49;;;;;;;23.85;10.98;;;;;;;30.21;69.03;100684.25;5032139;28;20034;-80
2023/07/13 08:35:15;;;;;;;20.27;10.50;;;;;;;30.12;69.04;100671.88;5031276;28;20025;-82
2023/07/13 08:37:41;;;;;;;21.38;12.05;;;;;;;30.20;68.16;100684.50;5031948;28;20084;-84
2023/07/13 08:40:10;;;;;;;21.92;11.65;;;;;;;30.20;67.94;100685.34;5030979;28;20033;-82
2023/07/13 08:42:45;;;;;;;30.98;14.65;;;;;;;30.26;67.48;100682.66;5030947;28;20028;-84
2023/07/13 08:45:14;;;;;;;36.95;13.18;;;;;;;30.42;66.71;100687.41;5031057;28;20050;-84
2023/07/13 08:47:47;;;;;;;40.78;12.10;;;;;;;30.34;65.38;100671.97;5032851;28;20489;-84
2023/07/13 08:50:19;;;;;;;24.23;11.63;;;;;;;30.61;63.79;100686.03;5032139;28;20034;-80
2023/07/13 08:52:46;;;;;;;22.35;10.93;;;;;;;30.59;62.60;100677.94;5034177;28;20100;-87
2023/07/13 08:55:20;;;;;;;25.50;11.93;;;;;;;30.70;60.98;100684.50;5018250;28;20124;-81
2023/07/13 08:57:52;;;;;;;29.88;10.85;;;;;;;30.79;61.15;100687.69;5031624;28;20440;-83
2023/07/13 09:00:18;;;;;;;35.25;13.90;;;;;;;30.86;60.46;100680.84;5031282;28;20527;-85
2023/07/13 09:02:56;;;;;;;37.78;12.98;;;;;;;30.99;59.17;100688.81;5031847;28;20022;-84
2023/07/13 09:05:38;;;;;;;52.88;23.85;;;;;;;31.03;56.42;100698.34;5033963;28;20057;-84
2023/07/13 09:08:22;;;;;;;14.93;11.20;;;;;;;30.98;56.79;100692.69;5033687;28;20021;-86
2023/07/13 09:10:59;;;;;;;19.52;12.45;;;;;;;30.95;57.19;100687.66;5051649;28;20034;-84
2023/07/13 09:13:47;;;;;;;23.48;12.32;;;;;;;30.83;57.76;100678.56;5039352;28;20053;-87
2023/07/13 09:16:13;;;;;;;28.42;14.00;;;;;;;30.90;56.79;100679.22;5017185;28;20040;-86
2023/07/13 09:18:43;;;;;;;22.15;12.23;;;;;;;30.97;56.24;100668.81;5034218;28;20025;-83
2023/07/13 09:21:18;;;;;;;27.17;12.65;;;;;;;31.10;55.66;100687.84;5033104;28;20034;-87
2023/07/13 09:23:44;;;;;;;38.28;13.98;;;;;;;31.11;55.12;100686.75;5034406;28;20028;-89
2023/07/13 09:26:17;;;;;;;39.63;13.40;;;;;;;31.32;54.09;100687.00;5017250;28;20184;-87
2023/07/13 09:28:45;;;;;;;27.92;12.57;;;;;;;31.42;53.41;100687.13;5035669;28;20037;-85
2023/07/13 09:31:16;;;;;;;34.17;13.05;;;;;;;31.32;53.39;100665.63;5033270;28;20052;-86
2023/07/13 09:33:42;;;;;;;48.60;14.18;;;;;;;31.33;53.02;100649.78;5045554;28;20025;-85
2023/07/13 09:36:28;;;;;;;65.85;16.40;;;;;;;31.46;51.26;100663.28;5032321;28;20050;-83
2023/07/13 09:39:23;;;;;;;23.25;12.60;;;;;;;31.61;50.93;100682.94;5036501;28;20033;-86
2023/07/13 09:41:51;;;;;;;24.95;11.90;;;;;;;31.49;50.24;100658.06;4973021;28;20049;-85
2023/07/13 09:44:28;;;;;;;22.45;12.20;;;;;;;31.54;50.33;100652.56;4956073;28;20085;-88
2023/07/13 09:46:55;;;;;;;22.13;11.75;;;;;;;31.64;51.34;100657.38;4973699;28;20175;-86
2023/07/13 09:49:25;;;;;;;24.08;12.10;;;;;;;31.58;52.83;100652.88;4970363;28;20030;-79
2023/07/13 09:52:00;;;;;;;19.00;12.18;;;;;;;31.58;53.30;100675.97;4970978;28;20042;-85
2023/07/13 09:54:25;;;;;;;34.58;13.32;;;;;;;31.62;54.32;100659.59;4972276;28;20038;-82
2023/07/13 09:57:13;;;;;;;26.05;13.52;;;;;;;31.50;55.14;100668.06;4972838;28;20592;-87
2023/07/13 09:59:47;;;;;;;27.70;12.10;;;;;;;31.54;55.72;100673.97;4971218;28;20078;-84
2023/07/13 10:02:33;;;;;;;23.73;12.90;;;;;;;31.61;56.10;100666.25;4975717;28;20066;-88
2023/07/13 10:05:03;;;;;;;25.85;12.65;;;;;;;31.66;55.35;100660.75;4983983;28;20026;-85
2023/07/13 10:07:30;;;;;;;26.92;11.65;;;;;;;31.67;54.28;100648.53;4955318;28;20913;-84
2023/07/13 10:10:02;;;;;;;26.23;12.20;;;;;;;31.69;53.00;100655.50;4973853;28;20113;-83
2023/07/13 10:12:30;;;;;;;53.10;15.15;;;;;;;31.52;53.51;100640.88;4982662;28;20039;-87
2023/07/13 10:14:59;;;;;;;23.77;12.75;;;;;;;31.65;53.51;100645.16;4960184;28;20031;-88
2023/07/13 10:17:32;;;;;;;27.08;13.18;;;;;;;31.84;52.68;100643.66;4989070;28;20063;-84
2023/07/13 10:20:04;;;;;;;27.50;12.15;;;;;;;31.91;52.82;100644.28;5043199;28;20009;-90
2023/07/13 10:22:51;;;;;;;29.60;12.30;;;;;;;31.80;53.01;100634.19;5047817;28;20021;-89
2023/07/13 10:25:22;;;;;;;33.90;12.68;;;;;;;32.01;52.98;100647.19;5030238;28;20037;-82
2023/07/13 10:27:52;;;;;;;24.55;13.45;;;;;;;32.05;52.77;100625.25;5030471;28;20069;-81
2023/07/13 10:30:23;;;;;;;30.55;13.25;;;;;;;32.18;52.92;100636.75;5040342;28;20017;-82
2023/07/13 10:32:50;;;;;;;35.20;13.10;;;;;;;32.22;53.13;100623.16;5022617;28;20040;-85
2023/07/13 10:35:18;;;;;;;24.02;12.93;;;;;;;32.29;52.67;100621.81;5045630;28;20033;-85
2023/07/13 10:38:01;;;;;;;24.35;12.70;;;;;;;32.49;51.54;100634.19;5044918;28;20049;-89
2023/07/13 10:40:35;;;;;;;16.33;10.98;;;;;;;32.32;51.00;100615.69;5037845;28;20025;-82
2023/07/13 10:43:10;;;;;;;35.85;14.18;;;;;;;32.43;51.19;100621.34;5035373;28;20060;-83
2023/07/13 10:45:37;;;;;;;29.17;12.88;;;;;;;32.61;50.57;100612.56;5034627;28;20481;-92
2023/07/13 10:48:05;;;;;;;17.00;12.85;;;;;;;32.66;50.00;100629.31;5041088;28;20060;-84
2023/07/13 10:50:31;;;;;;;25.10;11.82;;;;;;;32.71;50.16;100621.00;5046725;28;20037;-87
2023/07/13 10:53:23;;;;;;;21.40;12.38;;;;;;;32.68;50.10;100614.03;5045800;28;20029;-94
2023/07/13 10:55:48;;;;;;;26.63;13.02;;;;;;;32.48;51.38;100625.00;5034194;28;20041;-85
2023/07/13 10:58:18;;;;;;;23.83;13.83;;;;;;;32.50;51.96;100627.53;5033600;28;20056;-77
2023/07/13 11:00:53;;;;;;;49.13;14.80;;;;;;;32.52;51.40;100625.28;5027324;28;20284;-80
2023/07/13 11:03:21;;;;;;;28.75;12.43;;;;;;;32.67;51.54;100615.13;5027493;28;20871;-79
2023/07/13 11:06:04;;;;;;;28.70;12.38;;;;;;;32.86;51.42;100623.84;5029680;28;20037;-83
2023/07/13 11:08:38;;;;;;;31.02;14.10;;;;;;;32.74;52.35;100624.06;5028846;28;20694;-80